createdAt,value
2023-11-30T00:02:39.175Z,0.90
2023-11-30T00:05:43.600Z,0.77
2023-11-30T00:08:45.381Z,1.05
2023-11-30T00:11:47.278Z,0.70
2023-11-30T00:14:49.480Z,1.23
2023-11-30T00:17:51.498Z,0.93
2023-11-30T00:20:56.000Z,0.85
2023-11-30T00:24:00.313Z,0.98
2023-11-30T00:27:02.140Z,0.70
2023-11-30T00:30:04.622Z,1.00
2023-11-30T00:33:06.558Z,0.90
2023-11-30T00:36:10.943Z,0.90
2023-11-30T00:39:12.800Z,0.73
2023-11-30T00:42:14.649Z,0.98
2023-11-30T00:45:17.061Z,1.10
2023-11-30T00:48:19.085Z,0.70
2023-11-30T00:51:22.760Z,0.82
2023-11-30T00:54:24.621Z,0.90
2023-11-30T00:57:26.680Z,0.90
2023-11-30T01:00:28.707Z,1.00
2023-11-30T01:03:30.951Z,0.90
2023-11-30T01:06:34.725Z,1.92
2023-11-30T01:09:38.957Z,1.80
2023-11-30T01:12:40.717Z,1.83
2023-11-30T01:15:42.653Z,1.70
2023-11-30T01:18:44.920Z,1.25
2023-11-30T01:21:48.170Z,1.00
2023-11-30T01:24:50.008Z,1.20
2023-11-30T01:27:51.879Z,1.50
2023-11-30T01:30:53.917Z,1.35
2023-11-30T01:33:56.601Z,1.33
2023-11-30T01:36:59.997Z,1.40
2023-11-30T01:40:01.875Z,1.27
2023-11-30T01:43:06.992Z,1.52
2023-11-30T01:46:09.760Z,1.13
2023-11-30T01:49:11.836Z,0.90
2023-11-30T01:52:15.390Z,1.15
2023-11-30T01:55:20.482Z,0.90
2023-11-30T01:58:22.364Z,0.80
2023-11-30T02:01:26.558Z,0.93
2023-11-30T02:04:31.341Z,1.70
2023-11-30T02:07:34.925Z,1.60
2023-11-30T02:10:37.521Z,1.45
2023-11-30T02:13:39.568Z,1.33
2023-11-30T02:16:41.612Z,1.10
2023-11-30T02:19:43.797Z,1.25
2023-11-30T02:22:47.887Z,0.90
2023-11-30T02:25:49.589Z,1.23
2023-11-30T02:28:51.583Z,1.20
2023-11-30T02:31:53.749Z,1.23
2023-11-30T02:34:55.820Z,1.17
2023-11-30T02:37:58.918Z,1.20
2023-11-30T02:41:01.029Z,1.35
2023-11-30T02:44:03.041Z,1.77
2023-11-30T02:47:05.103Z,1.40
2023-11-30T02:50:08.479Z,1.60
2023-11-30T02:53:12.804Z,1.20
2023-11-30T02:56:14.577Z,1.52
2023-11-30T02:59:16.537Z,1.35
2023-11-30T03:02:20.774Z,1.27
2023-11-30T03:05:24.129Z,1.23
2023-11-30T03:08:27.547Z,1.20
2023-11-30T03:11:29.567Z,1.20
2023-11-30T03:14:31.536Z,1.25
2023-11-30T03:17:34.201Z,1.60
2023-11-30T03:20:35.971Z,1.60
2023-11-30T03:23:39.855Z,1.52
2023-11-30T03:26:41.562Z,2.03
2023-11-30T03:29:43.559Z,1.58
2023-11-30T03:32:45.481Z,1.60
2023-11-30T03:35:47.228Z,1.95
2023-11-30T03:38:50.488Z,1.67
2023-11-30T03:41:52.747Z,1.88
2023-11-30T03:44:54.653Z,1.80
2023-11-30T03:47:56.830Z,1.55
2023-11-30T03:50:58.656Z,1.35
2023-11-30T03:54:02.056Z,1.40
2023-11-30T03:57:04.142Z,1.10
2023-11-30T04:00:08.116Z,1.67
2023-11-30T04:03:10.218Z,1.77
2023-11-30T04:06:19.452Z,1.80
2023-11-30T04:09:22.994Z,1.75
2023-11-30T04:12:25.211Z,1.77
2023-11-30T04:15:28.022Z,1.80
2023-11-30T04:18:31.106Z,1.70
2023-11-30T04:21:32.973Z,1.98
2023-11-30T04:24:37.395Z,1.80
2023-11-30T04:27:40.412Z,1.60
2023-11-30T04:30:42.532Z,1.73
2023-11-30T04:33:44.911Z,2.55
2023-11-30T04:36:47.461Z,1.85
2023-11-30T04:39:50.638Z,1.70
2023-11-30T04:42:53.229Z,1.83
2023-11-30T04:45:55.011Z,2.05
2023-11-30T04:49:00.601Z,2.00
2023-11-30T04:52:02.458Z,2.28
2023-11-30T04:55:07.556Z,2.05
2023-11-30T04:58:09.373Z,2.17
2023-11-30T05:01:13.808Z,2.50
2023-11-30T05:04:15.758Z,2.10
2023-11-30T05:07:17.786Z,3.05
2023-11-30T05:10:21.014Z,2.85
2023-11-30T05:13:23.044Z,4.05
2023-11-30T05:16:25.052Z,3.40
2023-11-30T05:19:27.147Z,3.80
2023-11-30T05:22:28.932Z,3.40
2023-11-30T05:25:35.253Z,3.08
2023-11-30T05:28:37.051Z,2.83
2023-11-30T05:31:39.145Z,2.67
2023-11-30T05:34:43.284Z,3.03
2023-11-30T05:37:47.872Z,2.92
2023-11-30T05:40:51.509Z,3.17
2023-11-30T05:43:53.226Z,2.88
2023-11-30T05:46:54.983Z,2.72
2023-11-30T05:49:57.435Z,3.75
2023-11-30T05:52:59.193Z,3.47
2023-11-30T05:56:05.371Z,3.75
2023-11-30T05:59:07.332Z,3.58
2023-11-30T06:02:10.504Z,4.20
2023-11-30T06:05:12.266Z,4.13
2023-11-30T06:08:14.499Z,4.70
2023-11-30T06:11:18.811Z,5.07
2023-11-30T06:14:20.574Z,4.20
2023-11-30T06:17:22.275Z,5.18
2023-11-30T06:20:25.713Z,5.60
2023-11-30T06:23:27.726Z,5.45
2023-11-30T06:26:30.951Z,4.70
2023-11-30T06:29:33.922Z,4.78
2023-11-30T06:32:38.027Z,4.95
2023-11-30T06:35:39.852Z,7.03
2023-11-30T06:38:42.406Z,6.38
2023-11-30T06:41:50.599Z,5.70
2023-11-30T06:44:54.323Z,5.35
2023-11-30T06:47:56.128Z,3.92
2023-11-30T06:50:58.141Z,6.95
2023-11-30T06:54:00.051Z,4.88
2023-11-30T06:57:03.401Z,3.92
2023-11-30T07:00:06.812Z,3.63
2023-11-30T07:03:09.771Z,3.95
2023-11-30T07:06:11.981Z,5.90
2023-11-30T07:09:13.945Z,7.20
2023-11-30T07:12:17.563Z,4.13
2023-11-30T07:15:19.643Z,4.45
2023-11-30T07:18:24.245Z,4.05
2023-11-30T07:21:26.315Z,5.35
2023-11-30T07:24:28.299Z,3.78
2023-11-30T07:27:31.590Z,3.80
2023-11-30T07:30:33.333Z,4.03
2023-11-30T07:33:36.617Z,3.95
2023-11-30T07:36:38.426Z,5.47
2023-11-30T07:39:40.545Z,5.70
2023-11-30T07:42:47.420Z,5.20
2023-11-30T07:45:49.681Z,4.95
2023-11-30T07:48:51.636Z,6.22
2023-11-30T07:51:53.420Z,5.80
2023-11-30T07:54:55.128Z,6.22
2023-11-30T07:57:58.324Z,5.68
2023-11-30T08:01:00.068Z,5.50
2023-11-30T08:04:02.140Z,5.25
2023-11-30T08:07:04.721Z,6.90
2023-11-30T08:10:07.923Z,5.97
2023-11-30T08:13:12.776Z,4.82
2023-11-30T08:16:15.058Z,4.50
2023-11-30T08:19:17.289Z,4.70
2023-11-30T08:22:19.287Z,4.88
2023-11-30T08:25:21.073Z,5.88
2023-11-30T08:28:25.496Z,7.68
2023-11-30T08:31:27.387Z,9.18
2023-11-30T08:34:29.126Z,8.90
2023-11-30T08:37:31.479Z,8.18
2023-11-30T08:40:35.840Z,6.63
2023-11-30T08:43:39.928Z,5.65
2023-11-30T08:46:41.728Z,4.70
2023-11-30T08:49:43.711Z,4.22
2023-11-30T08:52:45.711Z,4.45
2023-11-30T08:55:48.785Z,3.92
2023-11-30T08:58:54.977Z,3.50
2023-11-30T09:01:56.960Z,3.30
2023-11-30T09:04:59.231Z,4.13
2023-11-30T09:08:01.126Z,3.30
2023-11-30T09:11:03.103Z,3.55
2023-11-30T09:14:06.223Z,3.08
2023-11-30T09:17:08.528Z,2.58
2023-11-30T09:20:13.283Z,3.33
2023-11-30T09:23:15.209Z,2.38
2023-11-30T09:26:20.517Z,2.67
2023-11-30T09:29:28.841Z,2.50
2023-11-30T09:32:32.048Z,2.47
2023-11-30T09:35:34.950Z,2.25
2023-11-30T09:38:38.618Z,2.78
2023-11-30T09:41:40.999Z,3.25
2023-11-30T09:44:45.913Z,3.92
2023-11-30T09:47:48.450Z,4.43
2023-11-30T09:50:53.306Z,3.80
2023-11-30T09:53:57.853Z,4.40
2023-11-30T09:56:59.689Z,5.07
2023-11-30T10:00:04.184Z,5.32
2023-11-30T10:03:06.062Z,5.50
2023-11-30T10:06:08.600Z,5.43
2023-11-30T10:09:10.875Z,6.22
2023-11-30T10:12:12.822Z,6.10
2023-11-30T10:15:16.814Z,17.80
2023-11-30T10:18:19.306Z,11.82
2023-11-30T10:21:21.535Z,8.93
2023-11-30T10:24:23.532Z,8.10
2023-11-30T10:27:26.771Z,7.32
2023-11-30T10:30:32.896Z,6.60
2023-11-30T10:33:36.081Z,6.78
2023-11-30T10:36:43.458Z,6.18
2023-11-30T10:39:52.869Z,6.32
2023-11-30T10:43:00.830Z,6.97
2023-11-30T10:46:07.794Z,6.97
2023-11-30T10:49:09.568Z,6.40
2023-11-30T10:52:11.971Z,6.53
2023-11-30T10:55:16.031Z,6.60
2023-11-30T10:58:26.289Z,5.45
2023-11-30T11:01:36.095Z,5.70
2023-11-30T11:04:40.407Z,4.97
2023-11-30T11:07:45.403Z,5.10
2023-11-30T11:10:48.081Z,4.97
2023-11-30T11:13:52.189Z,5.43
2023-11-30T11:17:04.301Z,4.90
2023-11-30T11:20:08.978Z,5.40
2023-11-30T11:23:11.011Z,5.25
2023-11-30T11:26:14.933Z,5.07
2023-11-30T11:29:23.957Z,5.47
2023-11-30T11:32:33.152Z,5.25
2023-11-30T11:35:36.194Z,5.40
2023-11-30T11:38:38.195Z,5.00
2023-11-30T11:41:39.913Z,5.32
2023-11-30T11:44:41.706Z,6.43
2023-11-30T11:47:45.348Z,5.22
2023-11-30T11:50:57.249Z,6.28
2023-11-30T11:54:02.079Z,6.13
2023-11-30T11:57:04.182Z,5.25
2023-11-30T12:00:08.059Z,4.97
2023-11-30T12:03:12.229Z,5.10
2023-11-30T12:06:14.319Z,6.28
2023-11-30T12:09:16.273Z,5.80
2023-11-30T12:12:18.339Z,5.30
2023-11-30T12:15:20.215Z,4.10
2023-11-30T12:18:23.455Z,3.47
2023-11-30T12:21:26.595Z,4.20
2023-11-30T12:24:28.506Z,4.50
2023-11-30T12:27:30.555Z,4.15
2023-11-30T12:30:32.717Z,3.97
2023-11-30T12:33:36.100Z,3.97
2023-11-30T12:36:38.016Z,4.25
2023-11-30T12:39:39.802Z,4.32
2023-11-30T12:42:41.887Z,3.88
2023-11-30T12:45:43.936Z,4.47
2023-11-30T12:48:47.276Z,4.55
2023-11-30T12:51:49.990Z,5.47
2023-11-30T12:54:55.249Z,4.15
2023-11-30T12:57:57.429Z,4.43
2023-11-30T13:00:59.299Z,4.10
2023-11-30T13:04:02.844Z,4.18
2023-11-30T13:07:05.152Z,5.13
2023-11-30T13:10:07.975Z,3.70
2023-11-30T13:13:09.776Z,4.07
2023-11-30T13:16:11.562Z,4.47
2023-11-30T13:19:14.843Z,4.32
2023-11-30T13:22:16.588Z,4.75
2023-11-30T13:25:18.483Z,4.32
2023-11-30T13:28:20.384Z,4.72
2023-11-30T13:31:22.619Z,4.03
2023-11-30T13:34:25.786Z,4.18
2023-11-30T13:37:27.546Z,4.75
2023-11-30T13:40:29.892Z,5.00
2023-11-30T13:43:31.851Z,5.35
2023-11-30T13:46:33.694Z,4.78
2023-11-30T13:49:36.999Z,5.30
2023-11-30T13:52:39.869Z,5.72
2023-11-30T13:55:43.255Z,5.05
2023-11-30T13:58:45.304Z,5.55
2023-11-30T14:01:52.574Z,5.18
2023-11-30T14:04:55.820Z,5.18
2023-11-30T14:07:58.850Z,5.32
2023-11-30T14:11:00.603Z,5.05
2023-11-30T14:14:02.428Z,4.88
2023-11-30T14:17:04.512Z,5.93
2023-11-30T14:20:10.119Z,5.82
2023-11-30T14:23:12.165Z,5.38
2023-11-30T14:26:13.941Z,5.22
2023-11-30T14:29:15.854Z,5.60
2023-11-30T14:32:20.031Z,4.93
2023-11-30T14:35:23.271Z,5.25
2023-11-30T14:38:25.082Z,5.20
2023-11-30T14:41:26.945Z,5.60
2023-11-30T14:44:29.016Z,4.95
2023-11-30T14:47:30.778Z,5.15
2023-11-30T14:50:33.971Z,5.15
2023-11-30T14:53:36.025Z,5.25
2023-11-30T14:56:37.779Z,5.78
2023-11-30T14:59:40.231Z,6.35
2023-11-30T15:02:42.564Z,7.25
2023-11-30T15:05:46.220Z,8.40
2023-11-30T15:08:48.079Z,7.45
2023-11-30T15:11:50.064Z,8.27
2023-11-30T15:14:52.915Z,9.15
2023-11-30T15:17:55.319Z,8.63
2023-11-30T15:20:58.637Z,8.27
2023-11-30T15:24:00.497Z,7.90
2023-11-30T15:27:02.241Z,8.70
2023-11-30T15:30:05.345Z,7.70
2023-11-30T15:33:08.425Z,7.53
2023-11-30T15:36:15.547Z,6.35
2023-11-30T15:39:17.451Z,6.25
2023-11-30T15:42:19.637Z,7.45
2023-11-30T15:45:23.119Z,7.53
2023-11-30T15:48:25.219Z,7.22
2023-11-30T15:51:29.023Z,7.72
2023-11-30T15:54:30.768Z,8.23
2023-11-30T15:57:33.916Z,7.85
2023-11-30T16:00:35.748Z,8.60
2023-11-30T16:03:39.871Z,7.97
2023-11-30T16:06:43.054Z,8.60
2023-11-30T16:09:46.214Z,8.07
2023-11-30T16:12:48.289Z,8.43
2023-11-30T16:15:50.138Z,8.15
2023-11-30T16:18:52.538Z,8.10
2023-11-30T16:21:55.986Z,8.27
2023-11-30T16:24:58.110Z,8.65
2023-11-30T16:28:00.289Z,8.88
2023-11-30T16:31:02.222Z,8.23
2023-11-30T16:34:04.131Z,9.48
2023-11-30T16:37:07.447Z,8.75
2023-11-30T16:40:10.527Z,9.10
2023-11-30T16:43:12.246Z,9.05
2023-11-30T16:46:14.138Z,10.23
2023-11-30T16:49:15.932Z,10.77
2023-11-30T16:52:19.715Z,10.60
2023-11-30T16:55:21.676Z,10.93
2023-11-30T16:58:23.613Z,9.45
2023-11-30T17:01:30.142Z,8.52
2023-11-30T17:04:32.223Z,8.88
2023-11-30T17:07:37.868Z,8.90
2023-11-30T17:10:39.930Z,8.82
2023-11-30T17:13:42.448Z,9.65
2023-11-30T17:16:44.364Z,9.50
2023-11-30T17:19:47.600Z,9.45
2023-11-30T17:22:51.002Z,10.23
2023-11-30T17:25:53.415Z,9.25
2023-11-30T17:28:55.527Z,9.18
2023-11-30T17:31:57.576Z,9.60
2023-11-30T17:34:59.414Z,9.55
2023-11-30T17:38:03.228Z,10.02
2023-11-30T17:41:05.787Z,9.93
2023-11-30T17:44:07.788Z,9.40
2023-11-30T17:47:10.043Z,9.52
2023-11-30T17:50:12.191Z,9.38
2023-11-30T17:53:15.331Z,9.63
2023-11-30T17:56:18.134Z,8.90
2023-11-30T17:59:21.465Z,8.70
2023-11-30T18:02:23.602Z,8.82
2023-11-30T18:05:26.422Z,8.32
2023-11-30T18:08:29.688Z,7.75
2023-11-30T18:11:34.144Z,7.88
2023-11-30T18:14:36.130Z,8.20
2023-11-30T18:17:37.930Z,7.85
2023-11-30T18:20:44.819Z,7.85
2023-11-30T18:23:48.068Z,8.30
2023-11-30T18:26:49.955Z,8.45
2023-11-30T18:29:52.021Z,8.25
2023-11-30T18:32:54.479Z,8.27
2023-11-30T18:35:57.182Z,9.30
2023-11-30T18:39:01.909Z,8.10
2023-11-30T18:42:05.480Z,8.65
2023-11-30T18:45:09.899Z,8.80
2023-11-30T18:48:14.722Z,9.07
2023-11-30T18:51:19.609Z,9.40
2023-11-30T18:54:24.736Z,10.13
2023-11-30T18:57:27.937Z,9.13
2023-11-30T19:00:31.736Z,9.85
2023-11-30T19:03:35.220Z,9.57
2023-11-30T19:06:38.524Z,9.98
2023-11-30T19:09:43.978Z,10.15
2023-11-30T19:12:47.278Z,9.30
2023-11-30T19:15:50.520Z,8.73
2023-11-30T19:18:53.782Z,9.88
2023-11-30T19:21:56.593Z,9.60
2023-11-30T19:25:00.696Z,9.48
2023-11-30T19:28:04.116Z,9.88
2023-11-30T19:31:08.565Z,9.77
2023-11-30T19:34:12.509Z,10.10
2023-11-30T19:37:15.927Z,8.90
2023-11-30T19:40:21.632Z,10.48
2023-11-30T19:43:25.813Z,9.38
2023-11-30T19:46:30.768Z,9.48
2023-11-30T19:49:34.683Z,9.65
2023-11-30T19:52:39.985Z,10.00
2023-11-30T19:55:45.300Z,9.45
2023-11-30T19:58:49.146Z,10.30
2023-11-30T20:01:53.779Z,9.85
2023-11-30T20:04:57.955Z,9.73
2023-11-30T20:08:02.058Z,9.63
2023-11-30T20:11:08.484Z,9.20
2023-11-30T20:14:13.081Z,9.90
2023-11-30T20:17:16.532Z,10.55
2023-11-30T20:20:21.766Z,10.10
2023-11-30T20:23:25.256Z,10.98
2023-11-30T20:26:30.678Z,10.77
2023-11-30T20:29:34.286Z,11.02
2023-11-30T20:32:37.622Z,10.13
2023-11-30T20:35:41.001Z,11.00
2023-11-30T20:38:44.688Z,11.77
2023-11-30T20:41:49.311Z,11.35
2023-11-30T20:44:52.282Z,10.55
2023-11-30T20:47:55.001Z,11.13
2023-11-30T20:50:57.557Z,11.07
2023-11-30T20:53:59.805Z,11.70
2023-11-30T20:57:03.798Z,10.73
2023-11-30T21:00:07.690Z,11.15
2023-11-30T21:03:10.154Z,11.32
2023-11-30T21:06:13.053Z,11.82
2023-11-30T21:09:15.916Z,10.70
2023-11-30T21:12:19.436Z,11.93
2023-11-30T21:15:21.241Z,11.02
2023-11-30T21:18:23.754Z,11.52
2023-11-30T21:21:26.190Z,12.15
2023-11-30T21:24:28.014Z,11.77
2023-11-30T21:27:31.525Z,11.45
2023-11-30T21:30:33.485Z,10.95
2023-11-30T21:33:35.818Z,11.70
2023-11-30T21:36:38.434Z,10.98
2023-11-30T21:39:40.259Z,11.13
2023-11-30T21:42:43.794Z,11.80
2023-11-30T21:45:45.874Z,10.60
2023-11-30T21:48:48.404Z,11.32
2023-11-30T21:51:51.353Z,11.15
2023-11-30T21:54:54.669Z,10.95
2023-11-30T21:57:58.063Z,11.27
2023-11-30T22:00:59.925Z,11.10
2023-11-30T22:04:01.978Z,12.45
2023-11-30T22:07:04.406Z,11.00
2023-11-30T22:10:08.374Z,11.68
2023-11-30T22:13:11.538Z,10.98
2023-11-30T22:16:18.743Z,11.25
2023-11-30T22:19:25.585Z,11.82
2023-11-30T22:22:27.357Z,13.43
2023-11-30T22:25:30.202Z,13.35
2023-11-30T22:28:33.587Z,13.85
2023-11-30T22:31:35.622Z,14.05
2023-11-30T22:34:37.852Z,15.05
2023-11-30T22:37:39.633Z,15.00
2023-11-30T22:40:42.587Z,14.85
2023-11-30T22:43:48.395Z,14.13
2023-11-30T22:46:51.792Z,13.38
2023-11-30T22:49:53.904Z,13.77
2023-11-30T22:52:56.056Z,13.93
2023-11-30T22:55:58.410Z,13.63
2023-11-30T22:59:01.646Z,13.35
2023-11-30T23:02:03.975Z,14.48
2023-11-30T23:05:08.211Z,13.43
2023-11-30T23:08:10.404Z,14.00
2023-11-30T23:11:12.253Z,14.27
2023-11-30T23:14:16.401Z,15.38
2023-11-30T23:17:21.287Z,14.88
2023-11-30T23:20:23.948Z,16.10
2023-11-30T23:23:27.939Z,15.60
2023-11-30T23:26:29.903Z,15.93
2023-11-30T23:29:33.682Z,15.23
2023-11-30T23:32:35.671Z,15.70
2023-11-30T23:35:37.658Z,14.25
2023-11-30T23:38:39.382Z,15.35
2023-11-30T23:41:43.461Z,15.02
2023-11-30T23:44:46.862Z,16.27
2023-11-30T23:47:48.826Z,16.52
2023-11-30T23:50:50.858Z,15.70
2023-11-30T23:53:53.348Z,16.77
2023-11-30T23:56:55.399Z,15.85
